createdAt,value
2022-12-08T00:00:05.706Z,97801.38
2022-12-08T00:02:58.576Z,97804.09
2022-12-08T00:05:44.057Z,97799.55
2022-12-08T00:08:29.111Z,97798.23
2022-12-08T00:10:55.581Z,97791.33
2022-12-08T00:13:22.067Z,97790.67
2022-12-08T00:15:48.814Z,97790.48
2022-12-08T00:18:15.654Z,97795.10
2022-12-08T00:20:42.292Z,97795.77
2022-12-08T00:23:08.843Z,97797.50
2022-12-08T00:25:36.513Z,97797.59
2022-12-08T00:28:03.430Z,97798.58
2022-12-08T00:30:30.135Z,97804.55
2022-12-08T00:32:56.712Z,97806.97
2022-12-08T00:35:23.342Z,97805.67
2022-12-08T00:37:50.044Z,97808.08
2022-12-08T00:40:16.747Z,97815.83
2022-12-08T00:42:43.433Z,97815.62
2022-12-08T00:45:10.361Z,97815.17
2022-12-08T00:47:37.232Z,97816.42
2022-12-08T00:50:04.353Z,97819.53
2022-12-08T00:52:31.172Z,97828.98
2022-12-08T00:54:57.691Z,97831.69
2022-12-08T00:57:24.432Z,97828.40
2022-12-08T00:59:51.039Z,97827.55
2022-12-08T01:02:17.777Z,97827.87
2022-12-08T01:04:44.451Z,97828.08
2022-12-08T01:07:11.045Z,97828.64
2022-12-08T01:09:37.675Z,97824.62
2022-12-08T01:12:05.445Z,97826.08
2022-12-08T01:14:32.028Z,97829.93
2022-12-08T01:16:58.628Z,97836.02
2022-12-08T01:19:25.416Z,97829.73
2022-12-08T01:21:52.138Z,97836.08
2022-12-08T01:24:20.271Z,97840.05
2022-12-08T01:26:47.728Z,97837.50
2022-12-08T01:29:14.564Z,97844.46
2022-12-08T01:31:41.416Z,97840.02
2022-12-08T01:34:09.384Z,97831.55
2022-12-08T01:36:38.717Z,97826.27
2022-12-08T01:39:07.256Z,97824.45
2022-12-08T01:41:35.223Z,97823.52
2022-12-08T01:44:04.008Z,97827.63
2022-12-08T01:46:32.335Z,97828.23
2022-12-08T01:49:08.137Z,97832.18
2022-12-08T01:51:37.517Z,97833.64
2022-12-08T01:54:06.120Z,97837.38
2022-12-08T01:56:40.712Z,97838.82
2022-12-08T01:59:09.091Z,97841.42
2022-12-08T02:01:35.727Z,97844.11
2022-12-08T02:04:03.734Z,97849.95
2022-12-08T02:06:33.105Z,97847.35
2022-12-08T02:09:00.749Z,97847.71
2022-12-08T02:11:27.283Z,97850.05
2022-12-08T02:13:54.746Z,97850.52
2022-12-08T02:16:41.543Z,97846.59
2022-12-08T02:19:32.010Z,97850.99
2022-12-08T02:22:11.079Z,97850.30
2022-12-08T02:24:47.723Z,97851.30
2022-12-08T02:27:32.270Z,97847.58
2022-12-08T02:30:21.710Z,97853.69
2022-12-08T02:33:06.995Z,97858.13
2022-12-08T02:35:36.187Z,97858.21
2022-12-08T02:38:09.334Z,97857.33
2022-12-08T02:40:38.887Z,97855.11
2022-12-08T02:43:13.710Z,97859.05
2022-12-08T02:45:59.112Z,97860.69
2022-12-08T02:48:27.104Z,97862.20
2022-12-08T02:50:53.889Z,97862.50
2022-12-08T02:53:20.640Z,97858.02
2022-12-08T02:55:59.861Z,97856.09
2022-12-08T02:58:41.552Z,97859.04
2022-12-08T03:01:19.926Z,97856.89
2022-12-08T03:03:46.729Z,97856.85
2022-12-08T03:06:46.349Z,97848.19
2022-12-08T03:09:29.841Z,97848.48
2022-12-08T03:12:02.559Z,97842.44
2022-12-08T03:14:30.379Z,97848.11
2022-12-08T03:16:58.007Z,97847.73
2022-12-08T03:19:30.515Z,97849.39
2022-12-08T03:22:02.375Z,97849.60
2022-12-08T03:24:31.887Z,97842.33
2022-12-08T03:27:01.589Z,97845.78
2022-12-08T03:29:28.945Z,97843.05
2022-12-08T03:31:57.420Z,97840.27
2022-12-08T03:34:26.384Z,97844.00
2022-12-08T03:36:53.105Z,97848.31
2022-12-08T03:39:20.306Z,97844.23
2022-12-08T03:41:46.851Z,97845.39
2022-12-08T03:44:13.677Z,97848.25
2022-12-08T03:46:40.821Z,97848.87
2022-12-08T03:49:07.666Z,97847.34
2022-12-08T03:51:34.318Z,97850.95
2022-12-08T03:54:00.826Z,97852.73
2022-12-08T03:56:30.076Z,97852.36
2022-12-08T03:58:56.749Z,97848.39
2022-12-08T04:01:23.692Z,97847.27
2022-12-08T04:03:50.783Z,97847.69
2022-12-08T04:06:17.689Z,97847.54
2022-12-08T04:08:44.445Z,97850.46
2022-12-08T04:11:11.710Z,97853.58
2022-12-08T04:13:39.369Z,97855.95
2022-12-08T04:16:06.242Z,97855.64
2022-12-08T04:18:33.597Z,97854.58
2022-12-08T04:21:00.301Z,97854.38
2022-12-08T04:23:26.902Z,97851.57
2022-12-08T04:25:53.466Z,97848.55
2022-12-08T04:28:21.188Z,97843.25
2022-12-08T04:30:48.376Z,97842.17
2022-12-08T04:33:15.147Z,97842.85
2022-12-08T04:35:42.053Z,97835.63
2022-12-08T04:38:08.542Z,97834.67
2022-12-08T04:40:35.301Z,97833.27
2022-12-08T04:43:02.068Z,97834.09
2022-12-08T04:45:28.786Z,97836.67
2022-12-08T04:47:55.439Z,97834.35
2022-12-08T04:50:22.234Z,97832.45
2022-12-08T04:52:48.818Z,97830.77
2022-12-08T04:55:15.686Z,97829.85
2022-12-08T04:57:42.240Z,97838.70
2022-12-08T05:00:09.478Z,97837.08
2022-12-08T05:02:36.961Z,97833.95
2022-12-08T05:05:04.086Z,97833.20
2022-12-08T05:07:30.892Z,97838.05
2022-12-08T05:09:57.369Z,97841.56
2022-12-08T05:12:23.967Z,97839.56
2022-12-08T05:14:50.594Z,97840.45
2022-12-08T05:17:17.902Z,97845.55
2022-12-08T05:19:44.408Z,97850.40
2022-12-08T05:22:11.018Z,97854.23
2022-12-08T05:24:41.307Z,97852.55
2022-12-08T05:27:11.071Z,97851.18
2022-12-08T05:29:37.580Z,97857.09
2022-12-08T05:32:04.393Z,97863.86
2022-12-08T05:34:30.958Z,97868.65
2022-12-08T05:36:57.541Z,97876.66
2022-12-08T05:39:24.307Z,97874.34
2022-12-08T05:41:51.068Z,97872.65
2022-12-08T05:44:17.562Z,97869.99
2022-12-08T05:46:44.520Z,97872.80
2022-12-08T05:49:10.979Z,97872.29
2022-12-08T05:51:37.616Z,97874.83
2022-12-08T05:54:04.294Z,97879.52
2022-12-08T05:56:30.993Z,97872.01
2022-12-08T05:58:57.586Z,97871.05
2022-12-08T06:01:25.710Z,97868.13
2022-12-08T06:03:53.192Z,97868.96
2022-12-08T06:06:19.893Z,97867.11
2022-12-08T06:08:46.957Z,97870.98
2022-12-08T06:11:21.321Z,97876.20
2022-12-08T06:13:48.310Z,97879.83
2022-12-08T06:16:15.028Z,97882.38
2022-12-08T06:18:41.623Z,97886.64
2022-12-08T06:21:09.630Z,97889.08
2022-12-08T06:23:36.282Z,97889.00
2022-12-08T06:26:04.457Z,97885.95
2022-12-08T06:28:31.648Z,97889.77
2022-12-08T06:30:58.357Z,97892.36
2022-12-08T06:33:25.298Z,97894.54
2022-12-08T06:35:52.184Z,97893.73
2022-12-08T06:38:18.867Z,97891.83
2022-12-08T06:40:52.132Z,97892.15
2022-12-08T06:43:18.646Z,97894.86
2022-12-08T06:45:45.252Z,97891.16
2022-12-08T06:48:11.834Z,97890.55
2022-12-08T06:50:39.449Z,97891.48
2022-12-08T06:53:09.119Z,97892.36
2022-12-08T06:55:58.754Z,97897.52
2022-12-08T06:58:22.987Z,97892.56
2022-12-08T07:00:49.952Z,97891.73
2022-12-08T07:03:17.990Z,97899.30
2022-12-08T07:05:45.426Z,97895.20
2022-12-08T07:08:12.415Z,97892.59
2022-12-08T07:10:39.243Z,97894.47
2022-12-08T07:13:10.205Z,97898.80
2022-12-08T07:15:37.041Z,97908.59
2022-12-08T07:18:03.564Z,97910.58
2022-12-08T07:20:30.293Z,97912.67
2022-12-08T07:22:57.337Z,97915.11
2022-12-08T07:25:23.979Z,97914.23
2022-12-08T07:27:52.594Z,97916.06
2022-12-08T07:30:19.617Z,97919.30
2022-12-08T07:32:46.345Z,97917.72
2022-12-08T07:35:14.592Z,97916.07
2022-12-08T07:37:41.567Z,97914.98
2022-12-08T07:40:08.729Z,97914.74
2022-12-08T07:42:35.708Z,97913.23
2022-12-08T07:45:02.534Z,97913.88
2022-12-08T07:47:29.357Z,97913.83
2022-12-08T07:49:56.073Z,97910.27
2022-12-08T07:52:23.020Z,97913.75
2022-12-08T07:54:49.570Z,97912.50
2022-12-08T07:57:16.707Z,97917.98
2022-12-08T07:59:43.661Z,97912.49
2022-12-08T08:02:25.994Z,97904.31
2022-12-08T08:04:53.052Z,97914.25
2022-12-08T08:07:19.941Z,97922.38
2022-12-08T08:09:46.667Z,97916.43
2022-12-08T08:12:30.697Z,97923.05
2022-12-08T08:14:59.673Z,97926.77
2022-12-08T08:17:26.476Z,97921.69
2022-12-08T08:19:53.703Z,97927.77
2022-12-08T08:22:20.355Z,97925.35
2022-12-08T08:24:47.296Z,97927.89
2022-12-08T08:27:14.022Z,97927.95
2022-12-08T08:29:40.540Z,97924.86
2022-12-08T08:32:07.269Z,97926.13
2022-12-08T08:34:34.137Z,97921.53
2022-12-08T08:37:00.964Z,97918.70
2022-12-08T08:39:29.532Z,97910.67
2022-12-08T08:41:57.166Z,97904.13
2022-12-08T08:44:24.087Z,97901.77
2022-12-08T08:46:51.277Z,97899.74
2022-12-08T08:49:18.260Z,97902.27
2022-12-08T08:51:46.232Z,97902.92
2022-12-08T08:54:12.950Z,97905.04
2022-12-08T08:56:39.456Z,97899.15
2022-12-08T08:59:06.375Z,97889.98
2022-12-08T09:01:33.393Z,97886.81
2022-12-08T09:04:00.862Z,97879.78
2022-12-08T09:06:30.762Z,97868.60
2022-12-08T09:08:57.577Z,97870.98
2022-12-08T09:11:24.364Z,97868.04
2022-12-08T09:13:51.735Z,97864.67
2022-12-08T09:16:18.972Z,97860.93
2022-12-08T09:18:45.990Z,97860.62
2022-12-08T09:21:15.984Z,97862.78
2022-12-08T09:23:43.560Z,97864.89
2022-12-08T09:26:10.198Z,97862.89
2022-12-08T09:28:37.443Z,97857.14
2022-12-08T09:31:04.140Z,97857.15
2022-12-08T09:33:31.142Z,97855.54
2022-12-08T09:36:01.194Z,97855.51
2022-12-08T09:38:27.744Z,97853.38
2022-12-08T09:40:54.432Z,97852.77
2022-12-08T09:43:33.289Z,97848.77
2022-12-08T09:46:01.675Z,97845.66
2022-12-08T09:48:41.361Z,97839.48
2022-12-08T09:51:08.943Z,97836.40
2022-12-08T09:53:36.341Z,97836.59
2022-12-08T09:56:08.186Z,97838.83
2022-12-08T09:58:44.915Z,97828.95
2022-12-08T10:01:11.966Z,97819.26
2022-12-08T10:03:40.036Z,97817.75
2022-12-08T10:06:06.767Z,97821.92
2022-12-08T10:08:39.818Z,97821.91
2022-12-08T10:11:11.754Z,97826.01
2022-12-08T10:13:46.183Z,97822.34
2022-12-08T10:16:29.728Z,97825.83
2022-12-08T10:19:01.524Z,97821.77
2022-12-08T10:21:29.618Z,97816.44
2022-12-08T10:24:00.244Z,97814.96
2022-12-08T10:26:27.556Z,97814.95
2022-12-08T10:29:00.773Z,97813.05
2022-12-08T10:31:29.166Z,97811.72
2022-12-08T10:34:00.347Z,97807.31
2022-12-08T10:36:46.723Z,97802.10
2022-12-08T10:39:32.598Z,97790.06
2022-12-08T10:42:08.053Z,97789.27
2022-12-08T10:44:52.857Z,97782.11
2022-12-08T10:47:24.179Z,97769.96
2022-12-08T10:50:08.357Z,97757.27
2022-12-08T10:52:38.966Z,97764.71
2022-12-08T10:55:16.421Z,97776.05
2022-12-08T10:57:43.001Z,97774.01
2022-12-08T11:00:14.853Z,97763.44
2022-12-08T11:03:01.393Z,97761.77
2022-12-08T11:05:35.156Z,97752.65
2022-12-08T11:08:02.478Z,97749.09
2022-12-08T11:10:33.761Z,97746.48
2022-12-08T11:13:01.854Z,97752.80
2022-12-08T11:15:32.906Z,97752.44
2022-12-08T11:18:05.692Z,97746.00
2022-12-08T11:20:40.147Z,97746.46
2022-12-08T11:23:18.547Z,97748.30
2022-12-08T11:25:46.420Z,97742.70
2022-12-08T11:28:12.953Z,97731.33
2022-12-08T11:30:47.171Z,97724.16
2022-12-08T11:33:17.049Z,97725.02
2022-12-08T11:35:45.275Z,97722.67
2022-12-08T11:38:21.688Z,97720.52
2022-12-08T11:40:52.718Z,97721.79
2022-12-08T11:43:35.347Z,97722.24
2022-12-08T11:46:02.287Z,97719.27
2022-12-08T11:48:33.632Z,97711.36
2022-12-08T11:51:03.443Z,97708.45
2022-12-08T11:53:30.119Z,97696.26
2022-12-08T11:55:57.943Z,97697.02
2022-12-08T11:58:28.704Z,97700.14
2022-12-08T12:00:56.008Z,97697.23
2022-12-08T12:03:38.688Z,97688.46
2022-12-08T12:06:23.871Z,97686.42
2022-12-08T12:08:56.972Z,97678.73
2022-12-08T12:11:56.397Z,97675.90
2022-12-08T12:14:32.011Z,97678.27
2022-12-08T12:17:03.209Z,97678.90
2022-12-08T12:19:34.918Z,97670.15
2022-12-08T12:22:21.669Z,97659.13
2022-12-08T12:24:49.878Z,97659.63
2022-12-08T12:27:27.595Z,97675.52
2022-12-08T12:29:58.364Z,97674.07
2022-12-08T12:32:26.617Z,97667.41
2022-12-08T12:34:58.460Z,97668.66
2022-12-08T12:37:34.565Z,97681.59
2022-12-08T12:40:02.973Z,97683.09
2022-12-08T12:42:42.364Z,97684.30
2022-12-08T12:45:19.397Z,97680.80
2022-12-08T12:47:55.875Z,97678.87
2022-12-08T12:50:33.018Z,97671.67
2022-12-08T12:53:02.465Z,97666.27
2022-12-08T12:55:47.880Z,97658.63
2022-12-08T12:58:30.679Z,97654.70
2022-12-08T13:01:09.858Z,97647.14
2022-12-08T13:03:59.690Z,97645.09
2022-12-08T13:06:36.486Z,97644.16
2022-12-08T13:09:03.495Z,97648.23
2022-12-08T13:11:47.775Z,97650.71
2022-12-08T13:14:27.016Z,97651.90
2022-12-08T13:16:55.670Z,97638.19
2022-12-08T13:19:22.333Z,97635.98
2022-12-08T13:21:48.904Z,97633.30
2022-12-08T13:24:17.246Z,97629.69
2022-12-08T13:26:44.394Z,97616.58
2022-12-08T13:29:21.884Z,97619.39
2022-12-08T13:31:53.378Z,97621.11
2022-12-08T13:34:33.971Z,97612.95
2022-12-08T13:37:13.228Z,97605.74
2022-12-08T13:39:39.873Z,97600.98
2022-12-08T13:42:18.790Z,97599.27
2022-12-08T13:45:19.735Z,97599.33
2022-12-08T13:48:29.046Z,97605.22
2022-12-08T13:59:19.007Z,97610.59
2022-12-08T14:01:48.145Z,97606.75
2022-12-08T14:04:47.484Z,97600.48
2022-12-08T14:07:09.040Z,97587.89
2022-12-08T14:09:36.964Z,97582.45
2022-12-08T14:12:06.337Z,97579.62
2022-12-08T14:17:22.907Z,97582.77
2022-12-08T14:20:00.399Z,97580.96
2022-12-08T14:22:34.391Z,97584.23
2022-12-08T14:25:02.402Z,97594.47
2022-12-08T14:27:33.043Z,97604.60
2022-12-08T14:30:01.281Z,97603.55
2022-12-08T14:32:32.737Z,97610.48
2022-12-08T14:35:06.031Z,97615.14
2022-12-08T14:37:34.501Z,97612.91
2022-12-08T14:40:24.166Z,97612.22
2022-12-08T14:43:05.461Z,97609.10
2022-12-08T14:45:35.501Z,97606.54
2022-12-08T14:48:20.451Z,97602.13
2022-12-08T14:50:52.999Z,97605.10
2022-12-08T14:53:19.653Z,97600.75
2022-12-08T14:55:47.840Z,97600.79
2022-12-08T14:58:20.090Z,97590.86
2022-12-08T15:00:48.370Z,97582.04
2022-12-08T15:03:16.849Z,97574.77
2022-12-08T15:05:43.678Z,97578.24
2022-12-08T15:08:12.472Z,97580.30
2022-12-08T15:10:39.523Z,97570.45
2022-12-08T15:13:07.941Z,97569.01
2022-12-08T15:15:49.737Z,97563.16
2022-12-08T15:18:19.338Z,97570.41
2022-12-08T15:20:55.093Z,97577.10
2022-12-08T15:23:21.890Z,97581.39
2022-12-08T15:25:48.905Z,97583.36
2022-12-08T15:28:19.814Z,97570.38
2022-12-08T15:30:47.125Z,97565.56
2022-12-08T15:33:14.179Z,97566.02
2022-12-08T15:35:41.390Z,97567.30
2022-12-08T15:38:16.154Z,97571.29
2022-12-08T15:40:42.676Z,97572.77
2022-12-08T15:43:10.452Z,97568.66
2022-12-08T15:45:37.289Z,97561.92
2022-12-08T15:48:04.252Z,97553.38
2022-12-08T15:50:30.792Z,97546.76
2022-12-08T15:52:57.399Z,97548.45
2022-12-08T15:55:23.947Z,97550.77
2022-12-08T16:00:55.090Z,97553.83
2022-12-08T16:09:12.536Z,97546.16
2022-12-08T16:12:08.316Z,97547.56
2022-12-08T16:17:23.986Z,97536.84
2022-12-08T16:19:50.878Z,97529.19
2022-12-08T16:25:22.325Z,97526.91
2022-12-08T16:28:01.228Z,97521.19
2022-12-08T16:30:32.530Z,97514.54
2022-12-08T16:32:59.178Z,97518.67
2022-12-08T16:35:25.753Z,97520.64
2022-12-08T16:37:52.398Z,97510.37
2022-12-08T16:40:19.182Z,97504.50
2022-12-08T16:42:47.833Z,97502.69
2022-12-08T16:45:14.738Z,97500.66
2022-12-08T16:47:42.759Z,97503.65
2022-12-08T16:50:11.471Z,97502.86
2022-12-08T16:52:38.295Z,97496.00
2022-12-08T16:55:09.398Z,97494.77
2022-12-08T16:57:35.979Z,97496.96
2022-12-08T17:00:04.605Z,97499.59
2022-12-08T17:02:31.360Z,97497.33
2022-12-08T17:04:58.496Z,97500.41
2022-12-08T17:07:25.215Z,97513.55
2022-12-08T17:09:51.751Z,97513.38
2022-12-08T17:12:18.287Z,97516.96
2022-12-08T17:14:44.820Z,97516.27
2022-12-08T17:17:11.601Z,97518.92
2022-12-08T17:19:40.655Z,97516.65
2022-12-08T17:22:07.313Z,97509.37
2022-12-08T17:24:34.133Z,97505.97
2022-12-08T17:27:03.684Z,97500.30
2022-12-08T17:29:31.301Z,97501.59
2022-12-08T17:31:58.453Z,97502.31
2022-12-08T17:34:25.290Z,97506.55
2022-12-08T17:36:52.013Z,97504.83
2022-12-08T17:39:19.302Z,97502.23
2022-12-08T17:41:46.325Z,97499.55
2022-12-08T17:44:14.906Z,97500.64
2022-12-08T17:46:45.258Z,97501.17
2022-12-08T17:49:20.190Z,97503.68
2022-12-08T17:51:47.516Z,97502.54
2022-12-08T17:54:14.649Z,97502.02
2022-12-08T17:56:41.604Z,97503.63
2022-12-08T17:59:08.452Z,97502.36
2022-12-08T18:01:35.100Z,97500.17
2022-12-08T18:04:02.516Z,97501.55
2022-12-08T18:06:31.286Z,97503.14
2022-12-08T18:08:59.044Z,97495.98
2022-12-08T18:11:26.710Z,97493.78
2022-12-08T18:13:54.272Z,97493.98
2022-12-08T18:16:22.241Z,97489.90
2022-12-08T18:18:49.333Z,97488.54
2022-12-08T18:21:22.876Z,97492.07
2022-12-08T18:23:50.317Z,97488.01
2022-12-08T18:26:16.955Z,97488.80
2022-12-08T18:28:43.699Z,97483.73
2022-12-08T18:31:15.359Z,97484.84
2022-12-08T18:33:42.694Z,97481.91
2022-12-08T18:36:10.823Z,97481.06
2022-12-08T18:38:37.724Z,97479.51
2022-12-08T18:41:08.685Z,97478.42
2022-12-08T18:43:36.025Z,97478.48
2022-12-08T18:46:04.022Z,97479.86
2022-12-08T18:48:30.713Z,97476.37
2022-12-08T18:50:57.337Z,97473.80
2022-12-08T18:53:24.251Z,97468.05
2022-12-08T18:55:50.790Z,97465.92
2022-12-08T18:58:18.152Z,97465.84
2022-12-08T19:00:45.069Z,97467.09
2022-12-08T19:03:11.684Z,97470.77
2022-12-08T19:05:38.300Z,97471.25
2022-12-08T19:08:05.559Z,97468.49
2022-12-08T19:10:39.084Z,97466.89
2022-12-08T19:13:05.923Z,97465.14
2022-12-08T19:15:33.729Z,97462.02
2022-12-08T19:18:00.966Z,97460.26
2022-12-08T19:20:27.688Z,97457.90
2022-12-08T19:22:54.676Z,97464.84
2022-12-08T19:25:21.522Z,97465.90
2022-12-08T19:27:48.253Z,97465.14
2022-12-08T19:30:15.289Z,97469.95
2022-12-08T19:32:42.093Z,97471.36
2022-12-08T19:35:16.331Z,97469.59
2022-12-08T19:37:42.966Z,97468.94
2022-12-08T19:40:30.630Z,97464.21
2022-12-08T19:43:23.586Z,97458.33
2022-12-08T19:45:50.287Z,97457.43
2022-12-08T19:48:16.967Z,97461.61
2022-12-08T19:50:43.596Z,97458.81
2022-12-08T19:53:11.948Z,97459.14
2022-12-08T19:55:38.782Z,97460.11
2022-12-08T19:58:05.756Z,97461.20
2022-12-08T20:00:33.004Z,97457.85
2022-12-08T20:03:01.177Z,97455.16
2022-12-08T20:05:29.125Z,97456.95
2022-12-08T20:07:56.133Z,97457.89
2022-12-08T20:10:27.659Z,97454.58
2022-12-08T20:13:15.643Z,97449.73
2022-12-08T20:15:42.947Z,97446.95
2022-12-08T20:18:10.530Z,97441.75
2022-12-08T20:20:38.732Z,97442.20
2022-12-08T20:23:05.912Z,97439.10
2022-12-08T20:25:32.944Z,97434.23
2022-12-08T20:27:59.671Z,97429.23
2022-12-08T20:30:26.425Z,97422.34
2022-12-08T20:32:53.181Z,97418.77
2022-12-08T20:35:20.093Z,97419.81
2022-12-08T20:37:46.685Z,97426.55
2022-12-08T20:40:13.443Z,97435.31
2022-12-08T20:42:39.990Z,97440.06
2022-12-08T20:45:09.009Z,97445.20
2022-12-08T20:47:36.341Z,97448.25
2022-12-08T20:50:04.493Z,97453.14
2022-12-08T20:52:31.929Z,97452.59
2022-12-08T20:54:58.872Z,97443.75
2022-12-08T20:57:26.002Z,97438.34
2022-12-08T20:59:53.662Z,97438.66
2022-12-08T21:02:20.356Z,97438.48
2022-12-08T21:04:47.408Z,97438.20
2022-12-08T21:07:14.195Z,97429.60
2022-12-08T21:09:41.173Z,97430.32
2022-12-08T21:12:08.208Z,97435.71
2022-12-08T21:14:35.116Z,97431.98
2022-12-08T21:17:02.338Z,97433.42
2022-12-08T21:19:29.239Z,97440.19
2022-12-08T21:21:56.076Z,97444.77
2022-12-08T21:24:23.130Z,97445.98
2022-12-08T21:26:50.156Z,97441.11
2022-12-08T21:29:16.688Z,97445.48
2022-12-08T21:31:43.357Z,97443.54
2022-12-08T21:34:10.830Z,97439.52
2022-12-08T21:36:37.601Z,97442.25
2022-12-08T21:39:10.588Z,97445.13
2022-12-08T21:41:56.666Z,97446.45
2022-12-08T21:44:23.801Z,97443.42
2022-12-08T21:46:50.383Z,97438.11
2022-12-08T21:49:17.083Z,97433.13
2022-12-08T21:51:43.837Z,97434.45
2022-12-08T21:54:16.714Z,97441.45
2022-12-08T21:56:46.901Z,97437.64
2022-12-08T21:59:13.487Z,97436.98
2022-12-08T22:01:42.782Z,97445.55
2022-12-08T22:04:11.606Z,97444.48
2022-12-08T22:06:38.564Z,97441.65
2022-12-08T22:09:06.663Z,97439.30
2022-12-08T22:11:33.377Z,97442.04
2022-12-08T22:14:00.017Z,97441.73
2022-12-08T22:16:28.111Z,97441.39
2022-12-08T22:18:55.191Z,97435.52
2022-12-08T22:21:22.007Z,97435.23
2022-12-08T22:23:48.992Z,97435.73
2022-12-08T22:26:15.601Z,97434.81
2022-12-08T22:28:42.866Z,97432.77
2022-12-08T22:31:10.953Z,97431.14
2022-12-08T22:33:38.494Z,97430.91
2022-12-08T22:36:10.731Z,97428.39
2022-12-08T22:38:37.864Z,97430.21
2022-12-08T22:41:05.160Z,97434.10
2022-12-08T22:43:32.616Z,97432.09
2022-12-08T22:45:59.437Z,97429.64
2022-12-08T22:48:26.249Z,97431.22
2022-12-08T22:50:57.811Z,97428.52
2022-12-08T22:53:24.304Z,97428.35
2022-12-08T22:55:51.342Z,97425.13
2022-12-08T22:58:18.199Z,97426.50
2022-12-08T23:00:44.968Z,97415.64
2022-12-08T23:03:11.717Z,97412.73
2022-12-08T23:05:39.256Z,97416.23
2022-12-08T23:08:07.651Z,97408.10
2022-12-08T23:10:34.958Z,97411.42
2022-12-08T23:13:03.905Z,97418.38
2022-12-08T23:15:31.172Z,97415.26
2022-12-08T23:17:57.819Z,97411.80
2022-12-08T23:20:25.221Z,97404.77
2022-12-08T23:22:52.521Z,97404.23
2022-12-08T23:25:19.517Z,97402.48
2022-12-08T23:27:46.150Z,97408.34
2022-12-08T23:30:13.221Z,97409.58
2022-12-08T23:32:40.132Z,97402.38
2022-12-08T23:35:07.205Z,97403.48
2022-12-08T23:37:34.156Z,97403.48
2022-12-08T23:40:00.997Z,97404.64
2022-12-08T23:42:29.553Z,97415.08
2022-12-08T23:44:56.727Z,97414.73
2022-12-08T23:47:23.496Z,97410.33
2022-12-08T23:49:50.400Z,97410.95
2022-12-08T23:52:17.048Z,97406.40
2022-12-08T23:54:44.421Z,97408.70
2022-12-08T23:57:11.230Z,97402.27
2022-12-08T23:59:38.201Z,97405.60
